sensor_id;sensor_type;location;lat;lon;timestamp;pressure;altitude;pressure_sealevel;temperature;humidity
19761;BME280;10039;42.632;23.408;2023-02-11T00:00:11;96701.94;;;-3.10;61.00
19761;BME280;10039;42.632;23.408;2023-02-11T00:02:37;96699.19;;;-3.18;60.78
19761;BME280;10039;42.632;23.408;2023-02-11T00:05:03;96697.50;;;-3.09;61.04
19761;BME280;10039;42.632;23.408;2023-02-11T00:07:29;96669.41;;;-3.17;60.31
19761;BME280;10039;42.632;23.408;2023-02-11T00:09:55;96710.75;;;-2.87;60.00
19761;BME280;10039;42.632;23.408;2023-02-11T00:12:21;96654.16;;;-3.65;60.26
19761;BME280;10039;42.632;23.408;2023-02-11T00:14:47;96689.03;;;-3.61;61.31
19761;BME280;10039;42.632;23.408;2023-02-11T00:17:13;96666.38;;;-3.66;60.93
19761;BME280;10039;42.632;23.408;2023-02-11T00:19:40;96645.63;;;-3.94;61.50
19761;BME280;10039;42.632;23.408;2023-02-11T00:22:06;96717.31;;;-3.50;61.69
19761;BME280;10039;42.632;23.408;2023-02-11T00:24:32;96704.22;;;-3.45;62.16
19761;BME280;10039;42.632;23.408;2023-02-11T00:26:57;96680.59;;;-3.53;61.94
19761;BME280;10039;42.632;23.408;2023-02-11T00:29:23;96636.47;;;-3.92;61.93
19761;BME280;10039;42.632;23.408;2023-02-11T00:31:49;96687.50;;;-3.62;62.04
19761;BME280;10039;42.632;23.408;2023-02-11T00:34:15;96665.00;;;-3.58;61.77
19761;BME280;10039;42.632;23.408;2023-02-11T00:36:41;96648.94;;;-3.65;61.47
19761;BME280;10039;42.632;23.408;2023-02-11T00:39:07;96698.44;;;-3.42;61.53
19761;BME280;10039;42.632;23.408;2023-02-11T00:41:33;96638.81;;;-3.90;61.56
19761;BME280;10039;42.632;23.408;2023-02-11T00:44:00;96694.16;;;-3.75;62.16
19761;BME280;10039;42.632;23.408;2023-02-11T00:46:27;96680.16;;;-3.84;62.08
19761;BME280;10039;42.632;23.408;2023-02-11T00:48:53;96652.66;;;-3.95;61.93
19761;BME280;10039;42.632;23.408;2023-02-11T00:51:26;96646.03;;;-4.06;61.98
19761;BME280;10039;42.632;23.408;2023-02-11T00:53:53;96650.19;;;-4.05;62.20
19761;BME280;10039;42.632;23.408;2023-02-11T00:56:19;96651.53;;;-4.12;62.00
19761;BME280;10039;42.632;23.408;2023-02-11T00:58:45;96673.81;;;-4.25;62.35
19761;BME280;10039;42.632;23.408;2023-02-11T01:01:11;96679.41;;;-4.08;62.62
19761;BME280;10039;42.632;23.408;2023-02-11T01:03:38;96668.47;;;-4.10;62.78
19761;BME280;10039;42.632;23.408;2023-02-11T01:06:05;96699.63;;;-4.00;62.31
19761;BME280;10039;42.632;23.408;2023-02-11T01:08:32;96670.19;;;-4.00;62.89
19761;BME280;10039;42.632;23.408;2023-02-11T01:11:02;96642.56;;;-4.25;62.37
19761;BME280;10039;42.632;23.408;2023-02-11T01:13:30;96668.91;;;-4.03;62.17
19761;BME280;10039;42.632;23.408;2023-02-11T01:15:57;96658.09;;;-4.15;62.68
19761;BME280;10039;42.632;23.408;2023-02-11T01:18:23;96666.31;;;-4.03;62.52
19761;BME280;10039;42.632;23.408;2023-02-11T01:20:51;96682.31;;;-3.91;62.36
19761;BME280;10039;42.632;23.408;2023-02-11T01:23:17;96623.19;;;-4.14;62.64
19761;BME280;10039;42.632;23.408;2023-02-11T01:25:43;96631.47;;;-4.35;62.26
19761;BME280;10039;42.632;23.408;2023-02-11T01:28:38;96651.69;;;-3.99;62.13
19761;BME280;10039;42.632;23.408;2023-02-11T01:31:06;96637.19;;;-4.33;62.39
19761;BME280;10039;42.632;23.408;2023-02-11T01:33:32;96675.19;;;-4.04;62.48
19761;BME280;10039;42.632;23.408;2023-02-11T01:36:02;96663.63;;;-3.98;62.64
19761;BME280;10039;42.632;23.408;2023-02-11T01:38:29;96683.13;;;-3.90;62.62
19761;BME280;10039;42.632;23.408;2023-02-11T01:41:00;96623.78;;;-4.22;62.21
19761;BME280;10039;42.632;23.408;2023-02-11T01:43:30;96653.09;;;-4.35;62.13
19761;BME280;10039;42.632;23.408;2023-02-11T01:46:22;96639.25;;;-4.30;62.85
19761;BME280;10039;42.632;23.408;2023-02-11T01:49:06;96651.34;;;-4.16;62.62
19761;BME280;10039;42.632;23.408;2023-02-11T01:51:37;96683.78;;;-3.80;62.49
19761;BME280;10039;42.632;23.408;2023-02-11T01:54:06;96646.63;;;-4.14;62.23
19761;BME280;10039;42.632;23.408;2023-02-11T01:56:54;96648.88;;;-4.07;62.45
19761;BME280;10039;42.632;23.408;2023-02-11T02:00:07;96665.75;;;-4.00;62.33
19761;BME280;10039;42.632;23.408;2023-02-11T02:02:43;96641.03;;;-4.02;62.27
19761;BME280;10039;42.632;23.408;2023-02-11T02:05:34;96653.00;;;-4.01;61.84
19761;BME280;10039;42.632;23.408;2023-02-11T02:10:30;96637.63;;;-4.26;62.23
19761;BME280;10039;42.632;23.408;2023-02-11T02:12:58;96614.59;;;-4.38;62.37
19761;BME280;10039;42.632;23.408;2023-02-11T02:15:32;96635.25;;;-4.23;62.49
19761;BME280;10039;42.632;23.408;2023-02-11T02:18:02;96611.53;;;-4.44;62.45
19761;BME280;10039;42.632;23.408;2023-02-11T02:21:07;96671.97;;;-4.19;62.47
19761;BME280;10039;42.632;23.408;2023-02-11T02:24:13;96658.19;;;-4.48;62.91
19761;BME280;10039;42.632;23.408;2023-02-11T02:34:48;96644.19;;;-4.57;63.16
19761;BME280;10039;42.632;23.408;2023-02-11T02:40:23;96638.78;;;-4.37;62.37
19761;BME280;10039;42.632;23.408;2023-02-11T02:42:51;96651.59;;;-4.41;62.39
19761;BME280;10039;42.632;23.408;2023-02-11T02:45:17;96665.69;;;-4.18;62.26
19761;BME280;10039;42.632;23.408;2023-02-11T02:47:43;96621.00;;;-4.58;62.26
19761;BME280;10039;42.632;23.408;2023-02-11T02:50:10;96656.22;;;-4.33;62.79
19761;BME280;10039;42.632;23.408;2023-02-11T02:53:08;96639.13;;;-4.43;62.14
19761;BME280;10039;42.632;23.408;2023-02-11T02:55:53;96678.84;;;-4.05;62.43
19761;BME280;10039;42.632;23.408;2023-02-11T02:58:49;96635.47;;;-4.43;62.21
19761;BME280;10039;42.632;23.408;2023-02-11T03:04:20;96688.94;;;-4.27;62.24
19761;BME280;10039;42.632;23.408;2023-02-11T03:06:57;96617.00;;;-4.74;62.50
19761;BME280;10039;42.632;23.408;2023-02-11T03:09:54;96650.25;;;-4.66;62.67
19761;BME280;10039;42.632;23.408;2023-02-11T03:12:23;96660.16;;;-4.68;62.56
19761;BME280;10039;42.632;23.408;2023-02-11T03:14:51;96635.88;;;-4.92;62.81
19761;BME280;10039;42.632;23.408;2023-02-11T03:17:18;96667.72;;;-4.72;62.43
19761;BME280;10039;42.632;23.408;2023-02-11T03:19:47;96661.06;;;-4.54;62.71
19761;BME280;10039;42.632;23.408;2023-02-11T03:22:42;96694.53;;;-4.38;62.93
19761;BME280;10039;42.632;23.408;2023-02-11T03:25:10;96664.44;;;-4.49;62.41
19761;BME280;10039;42.632;23.408;2023-02-11T03:27:46;96677.16;;;-4.47;62.22
19761;BME280;10039;42.632;23.408;2023-02-11T03:30:29;96619.56;;;-5.03;62.60
19761;BME280;10039;42.632;23.408;2023-02-11T03:33:06;96656.59;;;-4.77;62.92
19761;BME280;10039;42.632;23.408;2023-02-11T03:35:45;96654.56;;;-4.85;62.93
19761;BME280;10039;42.632;23.408;2023-02-11T03:38:20;96666.31;;;-4.59;62.51
19761;BME280;10039;42.632;23.408;2023-02-11T03:40:50;96613.66;;;-5.08;62.55
19761;BME280;10039;42.632;23.408;2023-02-11T03:43:20;96622.00;;;-5.11;62.92
19761;BME280;10039;42.632;23.408;2023-02-11T03:45:49;96673.81;;;-4.81;63.06
19761;BME280;10039;42.632;23.408;2023-02-11T03:48:48;96682.34;;;-4.76;62.55
19761;BME280;10039;42.632;23.408;2023-02-11T03:51:16;96602.84;;;-5.25;62.98
19761;BME280;10039;42.632;23.408;2023-02-11T03:53:43;96641.56;;;-4.85;62.80
19761;BME280;10039;42.632;23.408;2023-02-11T03:56:14;96646.03;;;-4.91;62.78
19761;BME280;10039;42.632;23.408;2023-02-11T03:58:44;96632.34;;;-5.01;62.79
19761;BME280;10039;42.632;23.408;2023-02-11T04:01:11;96637.09;;;-4.80;63.01
19761;BME280;10039;42.632;23.408;2023-02-11T04:03:37;96610.97;;;-4.98;62.81
19761;BME280;10039;42.632;23.408;2023-02-11T04:06:05;96605.31;;;-5.05;62.13
19761;BME280;10039;42.632;23.408;2023-02-11T04:08:31;96613.03;;;-4.95;62.13
19761;BME280;10039;42.632;23.408;2023-02-11T04:10:57;96681.00;;;-4.40;62.32
19761;BME280;10039;42.632;23.408;2023-02-11T04:13:23;96630.53;;;-4.72;61.90
19761;BME280;10039;42.632;23.408;2023-02-11T04:15:49;96650.78;;;-4.64;61.58
19761;BME280;10039;42.632;23.408;2023-02-11T04:18:15;96647.16;;;-4.68;61.64
19761;BME280;10039;42.632;23.408;2023-02-11T04:20:41;96637.16;;;-4.85;61.42
19761;BME280;10039;42.632;23.408;2023-02-11T04:23:07;96622.03;;;-5.16;61.76
19761;BME280;10039;42.632;23.408;2023-02-11T04:25:34;96646.84;;;-4.95;62.20
19761;BME280;10039;42.632;23.408;2023-02-11T04:28:00;96651.00;;;-4.94;61.98
19761;BME280;10039;42.632;23.408;2023-02-11T04:30:28;96632.38;;;-5.06;62.36
19761;BME280;10039;42.632;23.408;2023-02-11T04:32:54;96607.28;;;-5.26;62.37
19761;BME280;10039;42.632;23.408;2023-02-11T04:35:20;96633.28;;;-5.26;62.01
19761;BME280;10039;42.632;23.408;2023-02-11T04:37:46;96645.31;;;-4.96;62.33
19761;BME280;10039;42.632;23.408;2023-02-11T04:40:11;96662.47;;;-4.95;61.55
19761;BME280;10039;42.632;23.408;2023-02-11T04:42:37;96645.91;;;-5.09;62.22
19761;BME280;10039;42.632;23.408;2023-02-11T04:45:06;96639.09;;;-5.00;62.17
19761;BME280;10039;42.632;23.408;2023-02-11T04:47:32;96630.28;;;-5.04;62.25
19761;BME280;10039;42.632;23.408;2023-02-11T04:49:58;96614.75;;;-5.19;62.07
19761;BME280;10039;42.632;23.408;2023-02-11T04:52:27;96640.72;;;-5.09;62.39
19761;BME280;10039;42.632;23.408;2023-02-11T04:54:52;96599.25;;;-5.29;62.20
19761;BME280;10039;42.632;23.408;2023-02-11T04:57:18;96639.84;;;-5.33;62.73
19761;BME280;10039;42.632;23.408;2023-02-11T04:59:44;96614.44;;;-5.46;62.70
19761;BME280;10039;42.632;23.408;2023-02-11T05:02:10;96635.41;;;-5.33;62.68
19761;BME280;10039;42.632;23.408;2023-02-11T05:04:36;96597.81;;;-5.50;62.70
19761;BME280;10039;42.632;23.408;2023-02-11T05:07:02;96600.75;;;-5.61;62.62
19761;BME280;10039;42.632;23.408;2023-02-11T05:09:28;96623.19;;;-5.32;62.45
19761;BME280;10039;42.632;23.408;2023-02-11T05:11:54;96608.72;;;-5.48;62.63
19761;BME280;10039;42.632;23.408;2023-02-11T05:14:20;96612.88;;;-5.47;62.59
19761;BME280;10039;42.632;23.408;2023-02-11T05:16:46;96614.38;;;-5.36;62.32
19761;BME280;10039;42.632;23.408;2023-02-11T05:19:12;96599.09;;;-5.43;62.34
19761;BME280;10039;42.632;23.408;2023-02-11T05:21:37;96638.25;;;-5.29;62.10
19761;BME280;10039;42.632;23.408;2023-02-11T05:24:03;96613.88;;;-5.43;62.39
19761;BME280;10039;42.632;23.408;2023-02-11T05:26:29;96659.91;;;-5.00;62.57
19761;BME280;10039;42.632;23.408;2023-02-11T05:28:55;96592.56;;;-5.40;61.86
19761;BME280;10039;42.632;23.408;2023-02-11T05:31:21;96598.25;;;-5.38;62.27
19761;BME280;10039;42.632;23.408;2023-02-11T05:33:47;96614.41;;;-5.41;61.86
19761;BME280;10039;42.632;23.408;2023-02-11T05:36:13;96622.38;;;-5.28;61.90
19761;BME280;10039;42.632;23.408;2023-02-11T05:38:39;96649.50;;;-5.00;61.78
19761;BME280;10039;42.632;23.408;2023-02-11T05:41:08;96596.75;;;-5.44;61.42
19761;BME280;10039;42.632;23.408;2023-02-11T05:43:35;96629.66;;;-5.30;61.32
19761;BME280;10039;42.632;23.408;2023-02-11T05:46:02;96598.97;;;-5.66;61.78
19761;BME280;10039;42.632;23.408;2023-02-11T05:48:28;96637.16;;;-5.23;62.04
19761;BME280;10039;42.632;23.408;2023-02-11T05:50:54;96601.97;;;-5.49;61.79
19761;BME280;10039;42.632;23.408;2023-02-11T05:53:20;96601.94;;;-5.44;61.75
19761;BME280;10039;42.632;23.408;2023-02-11T05:55:52;96631.00;;;-5.37;62.14
19761;BME280;10039;42.632;23.408;2023-02-11T05:58:18;96616.94;;;-5.31;61.87
19761;BME280;10039;42.632;23.408;2023-02-11T06:00:43;96637.97;;;-5.28;61.84
19761;BME280;10039;42.632;23.408;2023-02-11T06:03:09;96659.13;;;-5.06;61.65
19761;BME280;10039;42.632;23.408;2023-02-11T06:05:35;96669.78;;;-4.97;62.20
19761;BME280;10039;42.632;23.408;2023-02-11T06:08:00;96609.88;;;-5.26;61.86
19761;BME280;10039;42.632;23.408;2023-02-11T06:10:26;96662.78;;;-5.07;61.79
19761;BME280;10039;42.632;23.408;2023-02-11T06:12:52;96626.97;;;-5.15;61.37
19761;BME280;10039;42.632;23.408;2023-02-11T06:15:18;96667.84;;;-4.82;61.39
19761;BME280;10039;42.632;23.408;2023-02-11T06:17:43;96686.31;;;-4.83;61.46
19761;BME280;10039;42.632;23.408;2023-02-11T06:20:10;96637.44;;;-4.91;61.20
19761;BME280;10039;42.632;23.408;2023-02-11T06:22:35;96672.19;;;-4.72;61.36
19761;BME280;10039;42.632;23.408;2023-02-11T06:25:01;96654.00;;;-4.77;61.46
19761;BME280;10039;42.632;23.408;2023-02-11T06:27:27;96669.53;;;-4.39;61.21
19761;BME280;10039;42.632;23.408;2023-02-11T06:29:53;96631.56;;;-4.73;60.72
19761;BME280;10039;42.632;23.408;2023-02-11T06:32:19;96618.09;;;-4.80;60.82
19761;BME280;10039;42.632;23.408;2023-02-11T06:34:45;96655.19;;;-4.37;60.72
19761;BME280;10039;42.632;23.408;2023-02-11T06:37:11;96646.56;;;-4.32;60.30
19761;BME280;10039;42.632;23.408;2023-02-11T06:39:37;96678.34;;;-4.07;60.04
19761;BME280;10039;42.632;23.408;2023-02-11T06:42:02;96632.59;;;-4.18;59.67
19761;BME280;10039;42.632;23.408;2023-02-11T06:44:28;96669.13;;;-3.99;59.73
19761;BME280;10039;42.632;23.408;2023-02-11T06:46:54;96631.69;;;-4.08;59.49
19761;BME280;10039;42.632;23.408;2023-02-11T06:49:19;96674.84;;;-3.74;59.37
19761;BME280;10039;42.632;23.408;2023-02-11T06:51:45;96626.22;;;-4.07;59.44
19761;BME280;10039;42.632;23.408;2023-02-11T06:54:11;96642.50;;;-3.73;58.82
19761;BME280;10039;42.632;23.408;2023-02-11T06:56:39;96652.19;;;-3.55;57.84
19761;BME280;10039;42.632;23.408;2023-02-11T06:59:06;96654.72;;;-3.50;58.27
19761;BME280;10039;42.632;23.408;2023-02-11T07:01:32;96687.25;;;-3.24;58.63
19761;BME280;10039;42.632;23.408;2023-02-11T07:03:57;96662.66;;;-3.18;57.92
19761;BME280;10039;42.632;23.408;2023-02-11T07:06:25;96628.22;;;-3.20;57.22
19761;BME280;10039;42.632;23.408;2023-02-11T07:08:53;96670.72;;;-2.83;57.54
19761;BME280;10039;42.632;23.408;2023-02-11T07:11:21;96638.94;;;-3.03;57.54
19761;BME280;10039;42.632;23.408;2023-02-11T07:13:49;96616.91;;;-2.97;57.43
19761;BME280;10039;42.632;23.408;2023-02-11T07:16:17;96667.94;;;-2.54;57.15
19761;BME280;10039;42.632;23.408;2023-02-11T07:18:44;96673.81;;;-2.62;57.42
19761;BME280;10039;42.632;23.408;2023-02-11T07:21:12;96620.44;;;-2.88;57.39
19761;BME280;10039;42.632;23.408;2023-02-11T07:23:40;96655.00;;;-2.46;57.33
19761;BME280;10039;42.632;23.408;2023-02-11T07:26:07;96600.19;;;-2.64;57.43
19761;BME280;10039;42.632;23.408;2023-02-11T07:28:35;96629.47;;;-2.22;57.62
19761;BME280;10039;42.632;23.408;2023-02-11T07:33:36;96625.03;;;-2.08;57.21
19761;BME280;10039;42.632;23.408;2023-02-11T07:36:03;96623.50;;;-1.82;56.28
19761;BME280;10039;42.632;23.408;2023-02-11T07:38:30;96625.03;;;-1.68;56.92
19761;BME280;10039;42.632;23.408;2023-02-11T07:41:01;96651.34;;;-1.37;56.18
19761;BME280;10039;42.632;23.408;2023-02-11T07:43:27;96622.38;;;-1.41;55.82
19761;BME280;10039;42.632;23.408;2023-02-11T07:45:53;96631.88;;;-1.31;55.56
19761;BME280;10039;42.632;23.408;2023-02-11T07:48:18;96598.31;;;-1.43;56.33
19761;BME280;10039;42.632;23.408;2023-02-11T07:50:44;96582.69;;;-1.21;55.29
19761;BME280;10039;42.632;23.408;2023-02-11T07:53:09;96604.28;;;-1.15;55.92
19761;BME280;10039;42.632;23.408;2023-02-11T07:55:35;96595.88;;;-1.26;55.71
19761;BME280;10039;42.632;23.408;2023-02-11T07:58:00;96571.84;;;-1.28;55.52
19761;BME280;10039;42.632;23.408;2023-02-11T08:00:26;96581.34;;;-1.10;55.81
19761;BME280;10039;42.632;23.408;2023-02-11T08:02:52;96578.88;;;-0.93;56.25
19761;BME280;10039;42.632;23.408;2023-02-11T08:05:17;96594.75;;;-0.68;55.35
19761;BME280;10039;42.632;23.408;2023-02-11T08:07:43;96577.38;;;-0.86;55.26
19761;BME280;10039;42.632;23.408;2023-02-11T08:10:08;96620.72;;;-0.27;55.10
19761;BME280;10039;42.632;23.408;2023-02-11T08:12:34;96597.69;;;-0.39;54.92
19761;BME280;10039;42.632;23.408;2023-02-11T08:15:00;96585.63;;;-0.48;54.97
19761;BME280;10039;42.632;23.408;2023-02-11T08:17:25;96592.34;;;-0.34;54.31
19761;BME280;10039;42.632;23.408;2023-02-11T08:19:51;96610.38;;;-0.32;55.24
19761;BME280;10039;42.632;23.408;2023-02-11T08:22:19;96614.06;;;-0.33;54.74
19761;BME280;10039;42.632;23.408;2023-02-11T08:24:45;96575.91;;;-0.48;54.28
19761;BME280;10039;42.632;23.408;2023-02-11T08:27:11;96619.22;;;-0.20;54.48
19761;BME280;10039;42.632;23.408;2023-02-11T08:29:36;96571.25;;;-0.51;54.04
19761;BME280;10039;42.632;23.408;2023-02-11T08:32:02;96605.59;;;-0.30;54.35
19761;BME280;10039;42.632;23.408;2023-02-11T08:34:27;96596.94;;;-0.31;54.47
19761;BME280;10039;42.632;23.408;2023-02-11T08:36:53;96578.53;;;-0.17;54.11
19761;BME280;10039;42.632;23.408;2023-02-11T08:39:20;96595.47;;;-0.23;53.47
19761;BME280;10039;42.632;23.408;2023-02-11T08:41:53;96634.72;;;-0.02;53.92
19761;BME280;10039;42.632;23.408;2023-02-11T08:44:21;96574.25;;;-0.35;54.88
19761;BME280;10039;42.632;23.408;2023-02-11T08:46:48;96579.78;;;0.02;55.30
19761;BME280;10039;42.632;23.408;2023-02-11T08:49:17;96559.75;;;0.06;53.51
19761;BME280;10039;42.632;23.408;2023-02-11T08:51:44;96587.72;;;0.19;52.90
19761;BME280;10039;42.632;23.408;2023-02-11T08:54:10;96571.41;;;-0.17;52.80
19761;BME280;10039;42.632;23.408;2023-02-11T08:56:37;96631.91;;;0.25;52.83
19761;BME280;10039;42.632;23.408;2023-02-11T08:59:03;96595.84;;;0.00;53.33
19761;BME280;10039;42.632;23.408;2023-02-11T09:01:30;96595.38;;;-0.02;53.06
19761;BME280;10039;42.632;23.408;2023-02-11T09:03:56;96591.69;;;-0.01;53.72
19761;BME280;10039;42.632;23.408;2023-02-11T09:06:23;96587.88;;;0.14;54.06
19761;BME280;10039;42.632;23.408;2023-02-11T09:08:54;96560.88;;;0.13;53.75
19761;BME280;10039;42.632;23.408;2023-02-11T09:11:25;96601.66;;;0.28;52.74
19761;BME280;10039;42.632;23.408;2023-02-11T09:13:54;96574.63;;;0.36;53.47
19761;BME280;10039;42.632;23.408;2023-02-11T09:16:22;96613.59;;;0.59;52.75
19761;BME280;10039;42.632;23.408;2023-02-11T09:18:48;96572.00;;;0.36;53.34
19761;BME280;10039;42.632;23.408;2023-02-11T09:21:15;96583.47;;;0.48;53.21
19761;BME280;10039;42.632;23.408;2023-02-11T09:23:41;96555.19;;;0.28;52.20
19761;BME280;10039;42.632;23.408;2023-02-11T09:26:12;96546.84;;;0.35;52.63
19761;BME280;10039;42.632;23.408;2023-02-11T09:28:38;96602.78;;;0.52;52.19
19761;BME280;10039;42.632;23.408;2023-02-11T09:31:08;96546.34;;;0.07;51.74
19761;BME280;10039;42.632;23.408;2023-02-11T09:33:34;96557.31;;;0.18;51.96
19761;BME280;10039;42.632;23.408;2023-02-11T09:36:03;96602.47;;;0.45;51.66
19761;BME280;10039;42.632;23.408;2023-02-11T09:38:31;96557.00;;;0.11;52.43
19761;BME280;10039;42.632;23.408;2023-02-11T09:40:56;96563.22;;;0.32;52.47
19761;BME280;10039;42.632;23.408;2023-02-11T09:43:37;96531.38;;;0.08;53.24
19761;BME280;10039;42.632;23.408;2023-02-11T09:46:13;96567.41;;;0.41;52.16
19761;BME280;10039;42.632;23.408;2023-02-11T09:48:40;96544.38;;;0.30;52.83
19761;BME280;10039;42.632;23.408;2023-02-11T09:54:03;96535.25;;;0.27;52.77
19761;BME280;10039;42.632;23.408;2023-02-11T09:56:30;96512.28;;;0.41;52.85
19761;BME280;10039;42.632;23.408;2023-02-11T09:58:55;96524.16;;;0.64;53.23
19761;BME280;10039;42.632;23.408;2023-02-11T10:07:00;96483.22;;;0.38;52.81
19761;BME280;10039;42.632;23.408;2023-02-11T10:09:34;96526.31;;;0.71;52.54
19761;BME280;10039;42.632;23.408;2023-02-11T10:12:27;96518.28;;;0.84;52.51
19761;BME280;10039;42.632;23.408;2023-02-11T10:15:07;96494.22;;;0.65;52.08
19761;BME280;10039;42.632;23.408;2023-02-11T10:17:46;96507.16;;;0.87;52.25
19761;BME280;10039;42.632;23.408;2023-02-11T10:25:42;96444.16;;;0.62;52.09
19761;BME280;10039;42.632;23.408;2023-02-11T10:28:15;96431.81;;;0.62;51.78
19761;BME280;10039;42.632;23.408;2023-02-11T10:31:00;96474.63;;;1.17;51.82
19761;BME280;10039;42.632;23.408;2023-02-11T10:33:32;96444.38;;;1.11;50.97
19761;BME280;10039;42.632;23.408;2023-02-11T10:36:03;96406.88;;;0.85;51.06
19761;BME280;10039;42.632;23.408;2023-02-11T10:38:29;96431.41;;;1.06;50.54
19761;BME280;10039;42.632;23.408;2023-02-11T10:40:57;96398.41;;;0.80;51.07
19761;BME280;10039;42.632;23.408;2023-02-11T10:43:27;96381.84;;;0.88;51.70
19761;BME280;10039;42.632;23.408;2023-02-11T10:45:54;96414.50;;;1.15;51.10
19761;BME280;10039;42.632;23.408;2023-02-11T10:48:43;96424.03;;;1.28;51.16
19761;BME280;10039;42.632;23.408;2023-02-11T10:53:43;96385.66;;;1.36;50.41
19761;BME280;10039;42.632;23.408;2023-02-11T10:56:27;96367.97;;;1.16;49.59
19761;BME280;10039;42.632;23.408;2023-02-11T10:58:59;96407.31;;;1.62;49.64
19761;BME280;10039;42.632;23.408;2023-02-11T11:01:47;96405.16;;;1.64;48.73
19761;BME280;10039;42.632;23.408;2023-02-11T11:04:46;96353.97;;;1.32;47.90
19761;BME280;10039;42.632;23.408;2023-02-11T11:07:28;96383.97;;;1.60;47.47
19761;BME280;10039;42.632;23.408;2023-02-11T11:12:34;96398.69;;;1.82;47.88
19761;BME280;10039;42.632;23.408;2023-02-11T11:17:36;96346.00;;;1.49;47.42
19761;BME280;10039;42.632;23.408;2023-02-11T11:20:27;96340.00;;;1.40;46.47
19761;BME280;10039;42.632;23.408;2023-02-11T11:23:09;96341.47;;;1.50;46.23
19761;BME280;10039;42.632;23.408;2023-02-11T11:25:39;96334.06;;;1.52;47.00
19761;BME280;10039;42.632;23.408;2023-02-11T11:28:19;96356.13;;;1.80;46.56
19761;BME280;10039;42.632;23.408;2023-02-11T11:30:46;96357.66;;;1.81;47.05
19761;BME280;10039;42.632;23.408;2023-02-11T11:33:20;96337.06;;;1.62;47.29
19761;BME280;10039;42.632;23.408;2023-02-11T11:36:02;96329.06;;;1.59;46.60
19761;BME280;10039;42.632;23.408;2023-02-11T11:38:30;96344.84;;;1.79;46.52
19761;BME280;10039;42.632;23.408;2023-02-11T11:41:25;96328.88;;;1.64;46.46
19761;BME280;10039;42.632;23.408;2023-02-11T11:46:31;96297.13;;;1.69;46.09
19761;BME280;10039;42.632;23.408;2023-02-11T11:49:06;96350.16;;;2.12;45.93
19761;BME280;10039;42.632;23.408;2023-02-11T11:51:38;96357.47;;;2.26;45.89
19761;BME280;10039;42.632;23.408;2023-02-11T11:54:11;96337.78;;;2.12;46.96
19761;BME280;10039;42.632;23.408;2023-02-11T11:56:57;96326.78;;;2.10;46.28
19761;BME280;10039;42.632;23.408;2023-02-11T11:59:26;96304.84;;;2.06;46.29
19761;BME280;10039;42.632;23.408;2023-02-11T12:02:13;96304.94;;;2.10;45.80
19761;BME280;10039;42.632;23.408;2023-02-11T12:08:02;96336.75;;;2.37;46.29
19761;BME280;10039;42.632;23.408;2023-02-11T12:10:43;96321.41;;;2.39;46.07
19761;BME280;10039;42.632;23.408;2023-02-11T12:22:36;96320.81;;;2.54;45.82
19761;BME280;10039;42.632;23.408;2023-02-11T12:28:02;96274.44;;;2.41;45.30
19761;BME280;10039;42.632;23.408;2023-02-11T12:31:03;96254.13;;;2.29;46.70
19761;BME280;10039;42.632;23.408;2023-02-11T12:36:34;96280.53;;;2.77;45.44
19761;BME280;10039;42.632;23.408;2023-02-11T12:39:14;96274.38;;;2.85;45.58
19761;BME280;10039;42.632;23.408;2023-02-11T12:53:20;96268.00;;;3.10;44.92
19761;BME280;10039;42.632;23.408;2023-02-11T12:55:55;96207.41;;;2.86;44.35
19761;BME280;10039;42.632;23.408;2023-02-11T12:58:26;96211.78;;;2.94;43.81
19761;BME280;10039;42.632;23.408;2023-02-11T13:00:59;96213.66;;;2.94;44.62
19761;BME280;10039;42.632;23.408;2023-02-11T13:03:45;96249.31;;;3.27;44.91
19761;BME280;10039;42.632;23.408;2023-02-11T13:06:14;96214.44;;;2.94;43.91
19761;BME280;10039;42.632;23.408;2023-02-11T13:08:46;96209.13;;;3.06;42.69
19761;BME280;10039;42.632;23.408;2023-02-11T13:11:16;96201.44;;;3.13;42.27
19761;BME280;10039;42.632;23.408;2023-02-11T13:13:51;96191.69;;;3.02;43.41
19761;BME280;10039;42.632;23.408;2023-02-11T13:16:24;96241.03;;;3.40;43.01
19761;BME280;10039;42.632;23.408;2023-02-11T13:21:52;96204.28;;;3.20;41.93
19761;BME280;10039;42.632;23.408;2023-02-11T13:24:35;96235.72;;;3.52;42.34
19761;BME280;10039;42.632;23.408;2023-02-11T13:35:36;96210.78;;;3.50;42.22
19761;BME280;10039;42.632;23.408;2023-02-11T13:38:26;96204.56;;;3.42;41.63
19761;BME280;10039;42.632;23.408;2023-02-11T13:41:17;96227.25;;;3.59;42.26
19761;BME280;10039;42.632;23.408;2023-02-11T13:43:57;96190.56;;;3.42;42.09
19761;BME280;10039;42.632;23.408;2023-02-11T13:46:24;96167.19;;;3.40;41.53
19761;BME280;10039;42.632;23.408;2023-02-11T13:48:51;96170.25;;;3.42;41.79
19761;BME280;10039;42.632;23.408;2023-02-11T13:51:34;96188.88;;;3.61;42.77
19761;BME280;10039;42.632;23.408;2023-02-11T13:54:01;96220.16;;;3.75;41.57
19761;BME280;10039;42.632;23.408;2023-02-11T13:56:35;96207.50;;;3.80;41.89
19761;BME280;10039;42.632;23.408;2023-02-11T13:59:04;96152.31;;;3.48;41.74
19761;BME280;10039;42.632;23.408;2023-02-11T14:04:31;96180.78;;;3.70;40.47
19761;BME280;10039;42.632;23.408;2023-02-11T14:07:32;96180.31;;;3.80;41.32
19761;BME280;10039;42.632;23.408;2023-02-11T14:13:23;96195.00;;;3.93;41.06
19761;BME280;10039;42.632;23.408;2023-02-11T14:16:09;96138.97;;;3.56;40.65
19761;BME280;10039;42.632;23.408;2023-02-11T14:23:36;96185.34;;;3.85;39.76
19761;BME280;10039;42.632;23.408;2023-02-11T14:26:29;96169.34;;;3.93;39.29
19761;BME280;10039;42.632;23.408;2023-02-11T14:29:15;96141.56;;;3.68;38.78
19761;BME280;10039;42.632;23.408;2023-02-11T14:40:24;96169.56;;;3.73;40.49
19761;BME280;10039;42.632;23.408;2023-02-11T14:42:52;96146.81;;;3.53;39.73
19761;BME280;10039;42.632;23.408;2023-02-11T14:45:22;96162.75;;;3.72;39.34
19761;BME280;10039;42.632;23.408;2023-02-11T14:47:59;96145.34;;;3.55;39.42
19761;BME280;10039;42.632;23.408;2023-02-11T14:50:33;96163.84;;;3.71;39.99
19761;BME280;10039;42.632;23.408;2023-02-11T14:53:01;96165.91;;;3.62;39.51
19761;BME280;10039;42.632;23.408;2023-02-11T14:55:33;96166.59;;;3.74;40.87